Time;durP1;ratioP1;P1;durP2;ratioP2;P2;SDS_P1;SDS_P2;PMS_P1;PMS_P2;Temp;Humidity;BMP_temperature;BMP_pressure;BME280_temperature;BME280_humidity;BME280_pressure;Samples;Min_cycle;Max_cycle;Signal;HPM_P1;HPM_P2
2022/02/22 00:00:41;;;;;;;6.50;2.13;;;7.20;99.90;;;;;;4832406;29;20885;-71
2022/02/22 00:03:27;;;;;;;9.53;1.70;;;7.20;99.90;;;;;;4835993;29;20463;-70
2022/02/22 00:06:13;;;;;;;9.27;2.00;;;7.20;99.90;;;;;;4835795;29;20464;-72
2022/02/22 00:09:00;;;;;;;6.70;2.47;;;7.20;99.90;;;;;;4838090;29;20816;-71
2022/02/22 00:11:45;;;;;;;4.50;1.73;;;7.20;99.90;;;;;;4833837;29;20963;-71
2022/02/22 00:14:31;;;;;;;14.13;2.60;;;7.20;99.90;;;;;;4834949;29;20624;-71
2022/02/22 00:17:17;;;;;;;8.63;2.10;;;7.20;99.90;;;;;;4842015;29;20455;-71
2022/02/22 00:20:03;;;;;;;9.00;1.73;;;7.10;99.90;;;;;;4837037;29;20514;-71
2022/02/22 00:22:49;;;;;;;4.80;2.20;;;7.10;99.90;;;;;;4836510;29;20552;-71
2022/02/22 00:25:36;;;;;;;15.10;2.57;;;7.10;99.90;;;;;;4840378;29;20477;-71
2022/02/22 00:28:22;;;;;;;17.53;3.60;;;7.20;99.90;;;;;;4837866;29;20430;-71
2022/02/22 00:31:08;;;;;;;8.37;2.17;;;7.30;99.90;;;;;;4835793;29;21027;-71
2022/02/22 00:33:54;;;;;;;10.17;2.40;;;7.40;99.90;;;;;;4838980;29;20494;-71
2022/02/22 00:36:39;;;;;;;15.90;2.43;;;7.40;99.90;;;;;;4840020;29;20475;-71
2022/02/22 00:39:25;;;;;;;16.70;2.80;;;7.40;99.90;;;;;;4840036;29;20452;-71
2022/02/22 00:42:12;;;;;;;7.30;2.67;;;7.30;99.90;;;;;;4837445;29;20451;-71
2022/02/22 00:44:59;;;;;;;4.47;1.60;;;7.30;99.90;;;;;;4842643;29;20486;-71
2022/02/22 00:47:45;;;;;;;6.47;2.63;;;7.40;99.90;;;;;;4839439;29;20588;-71
2022/02/22 00:50:30;;;;;;;6.03;1.90;;;7.40;99.90;;;;;;4838661;29;21193;-71
2022/02/22 00:53:16;;;;;;;14.03;2.33;;;7.40;99.90;;;;;;4838736;29;20448;-71
2022/02/22 00:56:02;;;;;;;8.73;2.43;;;7.40;99.90;;;;;;4840970;29;20426;-71
2022/02/22 00:58:49;;;;;;;14.33;3.63;;;7.40;99.90;;;;;;4840040;29;20455;-71
2022/02/22 01:01:34;;;;;;;12.53;2.10;;;7.40;99.90;;;;;;4840331;29;20458;-71
2022/02/22 01:04:20;;;;;;;8.67;3.20;;;7.40;99.90;;;;;;4842857;29;20572;-71
2022/02/22 01:07:06;;;;;;;11.93;2.30;;;7.40;99.90;;;;;;4838154;29;20562;-71
2022/02/22 01:09:51;;;;;;;12.50;2.13;;;7.40;99.90;;;;;;4838688;29;20460;-71
2022/02/22 01:12:37;;;;;;;14.40;2.93;;;7.30;99.90;;;;;;4847695;29;20538;-71
2022/02/22 01:15:25;;;;;;;8.00;2.47;;;7.20;99.90;;;;;;4843044;29;20483;-71
2022/02/22 01:18:10;;;;;;;9.80;2.37;;;7.20;99.90;;;;;;4843733;29;20965;-71
2022/02/22 01:20:56;;;;;;;8.60;2.33;;;7.20;99.90;;;;;;4838972;29;20475;-70
2022/02/22 01:23:42;;;;;;;13.33;2.37;;;7.20;99.90;;;;;;4839273;29;20965;-71
2022/02/22 01:26:28;;;;;;;9.10;1.93;;;7.20;99.90;;;;;;4838626;29;20416;-70
2022/02/22 01:29:13;;;;;;;9.90;2.17;;;7.20;99.90;;;;;;4842996;29;20439;-71
2022/02/22 01:32:00;;;;;;;9.30;2.17;;;7.20;99.90;;;;;;4838195;29;20509;-71
2022/02/22 01:34:46;;;;;;;5.00;1.67;;;7.10;99.90;;;;;;4847447;29;20510;-71
2022/02/22 01:37:32;;;;;;;10.03;2.33;;;7.00;99.90;;;;;;4843548;29;20582;-71
2022/02/22 01:40:18;;;;;;;7.37;2.27;;;7.00;99.90;;;;;;4837803;29;20426;-71
2022/02/22 01:43:03;;;;;;;8.83;1.70;;;6.90;99.90;;;;;;4844428;29;20508;-71
2022/02/22 01:45:49;;;;;;;6.97;2.20;;;6.90;99.90;;;;;;4839405;29;20472;-71
2022/02/22 01:48:36;;;;;;;9.20;2.10;;;6.90;99.90;;;;;;4842000;29;20924;-70
2022/02/22 01:51:22;;;;;;;7.13;2.10;;;6.90;99.90;;;;;;4837486;29;20506;-71
2022/02/22 01:54:07;;;;;;;5.30;2.00;;;6.90;99.90;;;;;;4841676;29;20487;-71
2022/02/22 01:56:53;;;;;;;7.30;1.87;;;6.90;99.90;;;;;;4840170;29;20439;-71
2022/02/22 01:59:39;;;;;;;19.67;2.70;;;6.90;99.90;;;;;;4839096;29;20438;-70
2022/02/22 02:02:24;;;;;;;8.97;2.50;;;6.90;99.90;;;;;;4842842;29;20413;-69
2022/02/22 02:05:12;;;;;;;10.80;1.77;;;6.80;99.90;;;;;;4835584;29;20618;-69
2022/02/22 02:07:57;;;;;;;10.17;2.70;;;6.80;99.90;;;;;;4844109;29;20454;-70
2022/02/22 02:10:43;;;;;;;6.00;1.87;;;6.90;99.90;;;;;;4849607;29;20490;-70
2022/02/22 02:13:29;;;;;;;11.53;2.23;;;6.90;99.90;;;;;;4851364;29;20923;-70
2022/02/22 02:16:14;;;;;;;5.23;2.23;;;6.90;99.90;;;;;;4838933;29;20457;-70
2022/02/22 02:19:00;;;;;;;8.50;2.53;;;7.00;99.90;;;;;;4839627;29;20946;-70
2022/02/22 02:21:48;;;;;;;5.97;2.17;;;6.90;99.90;;;;;;4835851;29;20459;-70
2022/02/22 02:24:35;;;;;;;8.43;2.23;;;6.90;99.90;;;;;;4839176;29;20470;-69
2022/02/22 02:27:21;;;;;;;15.60;4.23;;;6.80;99.90;;;;;;4841560;29;20434;-69
2022/02/22 02:30:09;;;;;;;13.80;1.97;;;6.80;99.90;;;;;;4840414;29;20447;-71
2022/02/22 02:32:54;;;;;;;12.30;2.40;;;6.70;99.90;;;;;;4841516;29;20455;-71
2022/02/22 02:35:40;;;;;;;12.10;2.43;;;6.70;99.90;;;;;;4834827;29;21233;-71
2022/02/22 02:38:25;;;;;;;14.10;2.60;;;6.70;99.90;;;;;;4842194;29;20455;-71
2022/02/22 02:41:12;;;;;;;5.87;1.90;;;6.70;99.90;;;;;;4841773;29;20447;-71
2022/02/22 02:44:03;;;;;;;10.00;2.63;;;6.80;99.90;;;;;;4838532;29;20560;-71
2022/02/22 02:46:49;;;;;;;8.97;1.90;;;6.90;99.90;;;;;;4836716;29;20464;-71
2022/02/22 02:49:35;;;;;;;7.93;2.00;;;6.90;99.90;;;;;;4836914;29;20500;-71
2022/02/22 02:52:20;;;;;;;15.17;2.50;;;6.90;99.90;;;;;;4837917;29;20507;-71
2022/02/22 02:55:07;;;;;;;15.50;2.80;;;6.80;99.90;;;;;;4836676;29;20482;-71
2022/02/22 02:57:54;;;;;;;10.03;3.00;;;6.80;99.90;;;;;;4836189;29;20978;-71
2022/02/22 03:00:39;;;;;;;13.13;2.20;;;6.90;99.90;;;;;;4841440;29;20940;-71
2022/02/22 03:03:25;;;;;;;11.13;2.57;;;6.90;99.90;;;;;;4837467;29;20446;-71
2022/02/22 03:06:11;;;;;;;13.30;2.43;;;7.00;99.90;;;;;;4837097;29;20526;-71
2022/02/22 03:08:57;;;;;;;6.93;1.87;;;6.90;99.90;;;;;;4837727;29;20912;-71
2022/02/22 03:11:43;;;;;;;6.90;1.93;;;6.90;99.90;;;;;;4839121;29;20959;-71
2022/02/22 03:14:30;;;;;;;11.23;2.73;;;6.90;99.90;;;;;;4837165;29;20475;-71
2022/02/22 03:17:17;;;;;;;11.83;2.27;;;6.90;99.90;;;;;;4839086;29;20491;-71
2022/02/22 03:20:03;;;;;;;9.20;2.10;;;7.00;99.90;;;;;;4836910;29;20449;-71
2022/02/22 03:22:53;;;;;;;16.37;2.63;;;7.00;99.90;;;;;;4836747;29;20451;-71
2022/02/22 03:25:39;;;;;;;11.33;2.30;;;7.00;99.90;;;;;;4836359;29;20449;-71
2022/02/22 03:28:26;;;;;;;20.93;2.30;;;6.90;99.90;;;;;;4841331;29;20501;-71
2022/02/22 03:31:14;;;;;;;19.57;3.40;;;6.90;99.90;;;;;;4838860;29;20456;-71
2022/02/22 03:34:00;;;;;;;8.63;2.97;;;6.90;99.90;;;;;;4835180;29;20542;-71
2022/02/22 03:36:45;;;;;;;12.03;2.23;;;7.00;99.90;;;;;;4839657;29;20447;-71
2022/02/22 03:39:31;;;;;;;11.30;2.60;;;6.90;99.90;;;;;;4841212;29;20500;-71
2022/02/22 03:42:17;;;;;;;9.73;2.17;;;6.90;99.90;;;;;;4837081;29;20553;-71
2022/02/22 03:45:03;;;;;;;10.53;2.50;;;6.90;99.90;;;;;;4834236;29;20544;-71
2022/02/22 03:47:50;;;;;;;8.90;2.30;;;7.00;99.90;;;;;;4833931;29;20434;-71
2022/02/22 03:50:36;;;;;;;12.03;2.60;;;6.80;99.90;;;;;;4834118;29;20428;-71
2022/02/22 03:53:21;;;;;;;17.83;2.93;;;6.90;99.90;;;;;;4837636;29;20963;-71
2022/02/22 03:56:07;;;;;;;15.73;3.43;;;6.90;99.90;;;;;;4838184;29;20850;-71
2022/02/22 03:58:53;;;;;;;10.53;3.20;;;6.90;99.90;;;;;;4833609;29;20824;-71
2022/02/22 04:01:39;;;;;;;14.00;3.30;;;7.00;99.90;;;;;;4841317;29;20441;-71
2022/02/22 04:04:26;;;;;;;15.40;3.13;;;7.00;99.90;;;;;;4834313;29;20474;-71
2022/02/22 04:07:12;;;;;;;17.17;3.40;;;6.90;99.90;;;;;;4837255;29;20418;-71
2022/02/22 04:09:57;;;;;;;15.90;3.20;;;6.80;99.90;;;;;;4836896;29;20428;-71
2022/02/22 04:12:44;;;;;;;16.10;3.20;;;6.80;99.90;;;;;;4836005;29;20572;-71
2022/02/22 04:15:29;;;;;;;9.17;2.63;;;6.80;99.90;;;;;;4837376;29;20461;-72
2022/02/22 04:18:15;;;;;;;16.07;3.20;;;6.70;99.90;;;;;;4836276;29;20494;-71
2022/02/22 04:21:02;;;;;;;16.37;2.63;;;6.70;99.90;;;;;;4835269;29;21022;-71
2022/02/22 04:23:48;;;;;;;12.60;3.03;;;6.70;99.90;;;;;;4832815;29;20453;-71
2022/02/22 04:26:34;;;;;;;11.50;2.70;;;6.70;99.90;;;;;;4842165;29;20506;-71
2022/02/22 04:29:19;;;;;;;15.50;4.10;;;6.70;99.90;;;;;;4841063;29;20430;-71
2022/02/22 04:32:06;;;;;;;9.23;2.30;;;6.80;99.90;;;;;;4836969;29;20459;-71
2022/02/22 04:34:52;;;;;;;10.90;2.63;;;6.70;99.90;;;;;;4839417;29;20963;-71
2022/02/22 04:37:39;;;;;;;12.07;2.53;;;6.60;99.90;;;;;;4835281;29;20447;-71
2022/02/22 04:40:26;;;;;;;9.43;2.33;;;6.60;99.90;;;;;;4839330;29;20452;-71
2022/02/22 04:43:13;;;;;;;25.07;3.40;;;6.70;99.90;;;;;;4836314;29;20505;-71
2022/02/22 04:45:58;;;;;;;7.23;2.20;;;6.70;99.90;;;;;;4836048;29;20615;-71
2022/02/22 04:48:44;;;;;;;10.33;3.07;;;6.70;99.90;;;;;;4832531;29;20545;-71
2022/02/22 04:51:29;;;;;;;11.87;2.80;;;6.70;99.90;;;;;;4841126;29;20430;-71
2022/02/22 04:54:16;;;;;;;12.27;2.33;;;6.70;99.90;;;;;;4837245;29;21209;-71
2022/02/22 04:57:02;;;;;;;14.83;2.50;;;6.70;99.90;;;;;;4848848;24;20616;-85
2022/02/22 04:59:48;;;;;;;9.70;2.40;;;6.70;99.90;;;;;;4839933;29;20812;-85
2022/02/22 05:02:33;;;;;;;9.83;2.83;;;6.60;99.90;;;;;;4841003;29;20452;-85
2022/02/22 05:05:19;;;;;;;11.97;2.60;;;6.60;99.90;;;;;;4843015;29;20469;-84
2022/02/22 05:08:05;;;;;;;11.33;2.77;;;6.50;99.90;;;;;;4844530;29;20438;-84
2022/02/22 05:10:52;;;;;;;10.07;2.00;;;6.50;99.90;;;;;;4841205;29;20421;-86
2022/02/22 05:13:38;;;;;;;11.40;2.43;;;6.40;99.90;;;;;;4843136;29;20837;-85
2022/02/22 05:16:24;;;;;;;20.00;3.10;;;6.40;99.90;;;;;;4844824;29;20485;-85
2022/02/22 05:19:10;;;;;;;10.57;2.10;;;6.30;99.90;;;;;;4842334;29;20419;-85
2022/02/22 05:21:55;;;;;;;12.03;2.60;;;6.30;99.90;;;;;;4843171;29;20525;-85
2022/02/22 05:24:41;;;;;;;10.20;2.60;;;6.30;99.90;;;;;;4847948;29;20479;-85
2022/02/22 05:27:28;;;;;;;9.97;2.80;;;6.30;99.90;;;;;;4846358;29;20617;-86
2022/02/22 05:30:16;;;;;;;15.10;2.63;;;6.20;99.90;;;;;;4845284;29;20490;-85
2022/02/22 05:33:02;;;;;;;12.47;2.33;;;6.20;99.90;;;;;;4839903;29;20480;-85
2022/02/22 05:35:48;;;;;;;8.50;2.07;;;6.20;99.90;;;;;;4848509;29;20477;-86
2022/02/22 05:38:33;;;;;;;14.90;2.40;;;6.10;99.90;;;;;;4846544;29;20546;-84
2022/02/22 05:41:19;;;;;;;8.27;2.23;;;6.20;99.90;;;;;;4842784;29;20458;-85
2022/02/22 05:44:07;;;;;;;17.47;4.60;;;6.20;99.90;;;;;;4846655;29;20578;-85
2022/02/22 05:46:52;;;;;;;12.07;3.93;;;6.20;99.90;;;;;;4842408;29;20472;-85
2022/02/22 05:49:38;;;;;;;19.40;3.20;;;6.10;99.90;;;;;;4846534;29;20464;-85
2022/02/22 05:52:24;;;;;;;10.37;2.43;;;6.20;99.90;;;;;;4839478;29;20564;-86
2022/02/22 05:55:10;;;;;;;12.93;2.97;;;6.20;99.90;;;;;;4845411;29;20509;-84
2022/02/22 05:57:56;;;;;;;16.87;2.57;;;6.20;99.90;;;;;;4845105;29;20417;-84
2022/02/22 06:00:43;;;;;;;14.50;2.97;;;6.20;99.90;;;;;;4841213;29;20823;-85
2022/02/22 06:03:29;;;;;;;13.37;2.60;;;6.20;99.90;;;;;;4845842;29;20446;-86
2022/02/22 06:06:14;;;;;;;6.73;1.93;;;6.20;99.90;;;;;;4846949;29;20480;-84
2022/02/22 06:09:00;;;;;;;21.03;3.27;;;6.20;99.90;;;;;;4844836;29;20425;-85
2022/02/22 06:11:46;;;;;;;7.83;1.80;;;6.30;99.90;;;;;;4843867;29;20442;-86
2022/02/22 06:14:31;;;;;;;8.80;3.40;;;6.30;99.90;;;;;;4848883;29;21001;-85
2022/02/22 06:17:20;;;;;;;10.27;3.03;;;6.40;99.90;;;;;;4844357;29;20425;-86
2022/02/22 06:20:08;;;;;;;16.13;3.47;;;6.40;99.90;;;;;;4843509;29;20452;-85
2022/02/22 06:22:53;;;;;;;7.60;2.40;;;6.30;99.90;;;;;;4845868;29;20808;-85
2022/02/22 06:25:39;;;;;;;16.97;3.20;;;6.20;99.90;;;;;;4847463;29;21048;-85
2022/02/22 06:28:25;;;;;;;14.33;2.80;;;6.30;99.90;;;;;;4849266;29;20499;-86
2022/02/22 06:31:11;;;;;;;14.67;3.53;;;6.30;99.90;;;;;;4843612;29;20452;-85
2022/02/22 06:33:58;;;;;;;16.50;2.70;;;6.30;99.90;;;;;;4841562;29;20450;-85
2022/02/22 06:36:44;;;;;;;11.03;2.90;;;6.20;99.90;;;;;;4845445;29;20447;-85
2022/02/22 06:39:29;;;;;;;11.33;2.83;;;6.20;99.90;;;;;;4848069;29;20454;-86
2022/02/22 06:42:15;;;;;;;18.70;3.23;;;6.20;99.90;;;;;;4849898;29;21009;-85
2022/02/22 06:45:01;;;;;;;6.90;2.87;;;6.20;99.90;;;;;;4849795;29;20488;-84
2022/02/22 06:47:47;;;;;;;9.23;2.72;;;6.20;99.90;;;;;;4845534;29;21015;-85
2022/02/22 06:50:35;;;;;;;9.82;2.42;;;6.20;99.90;;;;;;4845006;29;20208;-85
2022/02/22 06:53:20;;;;;;;13.70;3.60;;;6.10;99.90;;;;;;4845979;29;20218;-85
2022/02/22 06:56:07;;;;;;;7.10;2.17;;;6.10;99.90;;;;;;4845586;29;20470;-85
2022/02/22 06:58:54;;;;;;;10.17;2.80;;;6.00;99.90;;;;;;4844072;29;20466;-85
2022/02/22 07:01:40;;;;;;;9.63;4.20;;;5.90;99.90;;;;;;4845158;29;20455;-85
2022/02/22 07:04:26;;;;;;;9.47;4.20;;;5.90;99.90;;;;;;4846416;29;21056;-85
2022/02/22 07:07:12;;;;;;;23.83;4.50;;;5.90;99.90;;;;;;4844780;29;20470;-85
2022/02/22 07:09:57;;;;;;;11.43;4.40;;;5.90;99.90;;;;;;4841154;29;20459;-85
2022/02/22 07:12:44;;;;;;;15.20;4.43;;;5.80;99.90;;;;;;4846826;29;20462;-85
2022/02/22 07:15:31;;;;;;;11.17;3.20;;;5.80;99.90;;;;;;4846565;29;20453;-85
2022/02/22 07:18:16;;;;;;;10.50;3.03;;;5.80;99.90;;;;;;4847286;29;20430;-85
2022/02/22 07:21:03;;;;;;;17.03;2.67;;;5.90;99.90;;;;;;4843384;29;20454;-85
2022/02/22 07:23:48;;;;;;;12.97;3.47;;;5.80;99.90;;;;;;4844686;29;20972;-85
2022/02/22 07:26:34;;;;;;;22.83;3.60;;;5.90;99.90;;;;;;4850036;29;20468;-85
2022/02/22 07:29:20;;;;;;;10.77;3.50;;;5.90;99.90;;;;;;4844089;29;20467;-85
2022/02/22 07:32:08;;;;;;;13.10;4.43;;;5.90;99.90;;;;;;4840748;29;20541;-85
2022/02/22 07:34:53;;;;;;;16.73;5.17;;;6.00;99.90;;;;;;4842393;29;20456;-85
2022/02/22 07:37:40;;;;;;;14.60;4.23;;;6.20;99.90;;;;;;4849009;29;20436;-85
2022/02/22 07:40:27;;;;;;;20.97;4.33;;;6.30;99.90;;;;;;4843468;29;20475;-85
2022/02/22 07:43:13;;;;;;;19.93;5.77;;;6.40;99.90;;;;;;4844577;29;20536;-86
2022/02/22 07:45:59;;;;;;;15.70;3.80;;;6.50;99.90;;;;;;4845526;29;21023;-84
2022/02/22 07:48:47;;;;;;;18.57;4.13;;;6.60;99.90;;;;;;4846682;29;20657;-85
2022/02/22 07:51:32;;;;;;;9.53;3.23;;;6.70;99.90;;;;;;4844596;29;20830;-85
2022/02/22 07:54:18;;;;;;;11.10;4.37;;;6.70;99.90;;;;;;4845644;29;20546;-85
2022/02/22 07:57:04;;;;;;;16.83;2.77;;;6.80;99.90;;;;;;4848810;29;20487;-85
2022/02/22 07:59:50;;;;;;;13.23;3.37;;;6.90;99.90;;;;;;4845553;29;20467;-85
2022/02/22 08:02:36;;;;;;;9.40;2.80;;;6.80;99.90;;;;;;4849578;29;20445;-85
2022/02/22 08:05:24;;;;;;;17.57;3.87;;;6.90;99.90;;;;;;4847808;29;20521;-85
2022/02/22 08:08:11;;;;;;;14.20;3.60;;;6.80;99.90;;;;;;4843348;29;20465;-85
2022/02/22 08:10:56;;;;;;;16.50;4.00;;;6.90;99.90;;;;;;4848462;29;20442;-85
2022/02/22 08:13:42;;;;;;;17.03;4.87;;;6.90;99.90;;;;;;4849334;29;20808;-85
2022/02/22 08:16:28;;;;;;;9.57;3.43;;;6.90;99.90;;;;;;4849423;29;20456;-85
2022/02/22 08:19:13;;;;;;;9.20;3.37;;;6.90;99.90;;;;;;4843064;29;20469;-85
2022/02/22 08:22:00;;;;;;;18.90;4.03;;;6.90;99.90;;;;;;4843074;29;20516;-84
2022/02/22 08:24:46;;;;;;;14.13;3.00;;;6.90;99.90;;;;;;4847897;29;20500;-85
2022/02/22 08:27:32;;;;;;;16.03;2.70;;;7.10;99.90;;;;;;4845696;29;20449;-85
2022/02/22 08:30:18;;;;;;;12.10;3.00;;;7.30;99.90;;;;;;4843050;29;20822;-86
2022/02/22 08:33:04;;;;;;;11.57;3.23;;;7.40;99.90;;;;;;4847113;29;20456;-85
2022/02/22 08:35:50;;;;;;;13.60;6.20;;;7.40;99.90;;;;;;4848552;29;20475;-85
2022/02/22 08:38:37;;;;;;;12.23;3.33;;;7.60;99.90;;;;;;4843645;29;20459;-86
2022/02/22 08:41:23;;;;;;;13.90;3.00;;;7.70;99.90;;;;;;4846940;29;20845;-85
2022/02/22 08:44:10;;;;;;;9.30;2.90;;;7.70;99.90;;;;;;4844415;29;20519;-86
2022/02/22 08:46:55;;;;;;;16.53;4.50;;;7.90;99.90;;;;;;4845117;29;20461;-86
2022/02/22 08:49:42;;;;;;;11.57;3.77;;;7.90;99.90;;;;;;4838497;29;20582;-86
2022/02/22 08:52:29;;;;;;;11.57;3.83;;;7.90;99.90;;;;;;4843165;29;20455;-86
2022/02/22 08:55:17;;;;;;;7.83;2.30;;;8.00;99.90;;;;;;4847500;29;21161;-86
2022/02/22 08:58:03;;;;;;;10.47;3.03;;;8.10;99.90;;;;;;4841612;29;20453;-87
2022/02/22 09:00:49;;;;;;;10.17;3.10;;;8.20;99.90;;;;;;4840517;29;20544;-85
2022/02/22 09:03:35;;;;;;;10.80;2.83;;;8.30;99.90;;;;;;4845976;29;20503;-85
2022/02/22 09:06:21;;;;;;;12.20;2.93;;;8.30;99.90;;;;;;4839061;29;21052;-85
2022/02/22 09:09:06;;;;;;;16.20;3.70;;;8.30;99.90;;;;;;4840211;29;20462;-85
2022/02/22 09:11:54;;;;;;;13.40;3.00;;;8.30;99.90;;;;;;4842313;29;20854;-85
2022/02/22 09:14:40;;;;;;;20.93;4.13;;;8.20;99.90;;;;;;4842053;29;20483;-85
2022/02/22 09:17:26;;;;;;;16.13;4.07;;;8.30;99.90;;;;;;4840660;29;20422;-86
2022/02/22 09:20:14;;;;;;;8.00;3.00;;;8.30;99.90;;;;;;4842319;29;20581;-86
2022/02/22 09:23:00;;;;;;;12.40;3.20;;;8.30;99.90;;;;;;4841632;29;20427;-85
2022/02/22 09:25:46;;;;;;;14.77;4.17;;;8.40;99.90;;;;;;4844447;29;20820;-84
2022/02/22 09:28:33;;;;;;;13.60;5.07;;;8.30;99.90;;;;;;4841916;29;20448;-85
2022/02/22 09:31:19;;;;;;;13.73;4.17;;;8.10;99.90;;;;;;4847564;29;20545;-86
2022/02/22 09:34:04;;;;;;;14.03;4.00;;;8.10;99.90;;;;;;4844656;29;20609;-85
2022/02/22 09:36:50;;;;;;;11.37;4.13;;;8.10;99.90;;;;;;4848044;29;20505;-84
2022/02/22 09:39:37;;;;;;;12.23;3.57;;;8.10;99.90;;;;;;4846718;29;20524;-85
2022/02/22 09:42:25;;;;;;;15.67;4.90;;;8.10;99.90;;;;;;4847171;29;20467;-86
2022/02/22 09:45:13;;;;;;;12.07;4.33;;;8.20;99.90;;;;;;4846291;29;20528;-86
2022/02/22 09:48:04;;;;;;;16.00;4.47;;;8.40;99.90;;;;;;4849028;29;20973;-84
2022/02/22 09:50:50;;;;;;;12.43;3.63;;;8.40;99.90;;;;;;4846648;29;20820;-85
2022/02/22 09:53:37;;;;;;;11.80;3.90;;;8.40;99.90;;;;;;4847990;29;20472;-86
2022/02/22 09:56:24;;;;;;;9.90;3.03;;;8.50;99.90;;;;;;4849008;29;20467;-86
2022/02/22 09:59:11;;;;;;;10.43;3.23;;;8.60;99.90;;;;;;4843086;29;20463;-85
2022/02/22 10:01:59;;;;;;;14.67;4.07;;;8.60;99.90;;;;;;4844452;29;20495;-85
2022/02/22 10:04:46;;;;;;;31.13;5.00;;;8.70;99.90;;;;;;4843046;29;20475;-85
2022/02/22 10:07:32;;;;;;;14.50;3.53;;;8.60;99.90;;;;;;4843401;29;20566;-85
2022/02/22 10:10:18;;;;;;;88.53;6.50;;;8.70;99.90;;;;;;4841062;29;20976;-85
2022/02/22 10:13:04;;;;;;;13.10;3.73;;;8.70;99.90;;;;;;4839499;29;20513;-86
2022/02/22 10:15:51;;;;;;;14.20;3.67;;;8.70;99.90;;;;;;4840694;29;20542;-88
2022/02/22 10:18:47;;;;;;;13.50;3.80;;;8.60;99.90;;;;;;4833399;29;20423;-86
2022/02/22 10:21:41;;;;;;;5.20;2.73;;;8.70;99.90;;;;;;4839854;29;20590;-86
2022/02/22 10:24:31;;;;;;;10.17;2.97;;;8.80;99.90;;;;;;4843583;29;20453;-85
2022/02/22 10:27:17;;;;;;;9.90;3.83;;;8.90;99.90;;;;;;4835794;29;20549;-86
2022/02/22 10:30:03;;;;;;;7.60;3.47;;;8.90;99.90;;;;;;4843952;29;20460;-86
2022/02/22 10:32:49;;;;;;;20.13;3.00;;;9.00;99.90;;;;;;4844034;29;20466;-86
2022/02/22 10:35:36;;;;;;;7.33;2.70;;;9.00;99.90;;;;;;4839886;29;20447;-87
2022/02/22 10:38:26;;;;;;;6.60;2.40;;;9.00;99.90;;;;;;4838243;29;20498;-87
2022/02/22 10:41:15;;;;;;;5.07;2.23;;;9.20;99.90;;;;;;4841332;29;20535;-87
2022/02/22 10:44:02;;;;;;;17.03;3.87;;;9.10;99.00;;;;;;4845368;29;20471;-86
2022/02/22 10:46:49;;;;;;;4.70;2.23;;;9.10;98.00;;;;;;4841672;29;20527;-87
2022/02/22 10:49:37;;;;;;;10.70;3.37;;;9.00;97.50;;;;;;4842904;29;20454;-87
2022/02/22 10:52:31;;;;;;;9.90;3.27;;;9.10;97.60;;;;;;4842924;29;20459;-86
2022/02/22 10:55:17;;;;;;;6.77;2.80;;;9.10;98.50;;;;;;4849806;24;20534;-70
2022/02/22 10:58:05;;;;;;;14.53;3.57;;;9.20;97.80;;;;;;4825276;24;20647;-71
2022/02/22 11:00:51;;;;;;;10.83;2.13;;;9.20;98.30;;;;;;4818549;29;20440;-71
2022/02/22 11:03:37;;;;;;;11.37;3.07;;;9.30;98.60;;;;;;4816629;29;20459;-71
2022/02/22 11:06:23;;;;;;;6.37;1.90;;;9.30;98.20;;;;;;4806667;29;20453;-71
2022/02/22 11:09:14;;;;;;;6.10;2.43;;;9.30;97.80;;;;;;4799949;29;20494;-71
2022/02/22 11:12:01;;;;;;;12.97;3.00;;;9.20;97.80;;;;;;4799457;29;20429;-71
2022/02/22 11:14:47;;;;;;;9.87;2.70;;;9.20;98.20;;;;;;4798889;29;20462;-72
2022/02/22 11:17:32;;;;;;;6.90;2.50;;;9.20;97.50;;;;;;4799185;29;20499;-71
2022/02/22 11:20:28;;;;;;;14.63;4.37;;;9.30;98.00;;;;;;4801743;29;20449;-71
2022/02/22 11:23:24;;;;;;;11.07;3.13;;;9.40;98.80;;;;;;4801270;29;21019;-72
2022/02/22 11:26:14;;;;;;;7.13;3.30;;;9.60;98.20;;;;;;4801227;29;21337;-70
2022/02/22 11:29:01;;;;;;;5.43;2.60;;;9.60;97.80;;;;;;4801231;29;20459;-73
2022/02/22 11:32:02;;;;;;;10.83;4.67;;;9.50;98.80;;;;;;4804304;29;20444;-71
2022/02/22 11:34:48;;;;;;;17.17;3.60;;;9.50;99.70;;;;;;4796500;29;20933;-71
2022/02/22 11:37:34;;;;;;;14.27;4.00;;;9.40;98.70;;;;;;4797254;29;20481;-71
2022/02/22 11:40:24;;;;;;;8.10;3.00;;;9.40;99.60;;;;;;4800834;29;20532;-71
2022/02/22 11:43:13;;;;;;;13.30;2.90;;;9.30;99.90;;;;;;4797059;29;20469;-72
2022/02/22 11:46:07;;;;;;;9.43;3.33;;;9.40;99.90;;;;;;4797660;29;20781;-71
2022/02/22 11:49:03;;;;;;;10.30;2.90;;;9.40;99.90;;;;;;4799781;29;20469;-72
2022/02/22 11:51:52;;;;;;;9.23;3.23;;;9.50;99.50;;;;;;4797734;29;20445;-72
2022/02/22 11:54:38;;;;;;;10.60;3.03;;;9.60;99.90;;;;;;4801639;29;20485;-72
2022/02/22 11:57:24;;;;;;;27.63;3.80;;;9.50;98.90;;;;;;4799934;29;21046;-70
2022/02/22 12:00:12;;;;;;;8.67;2.97;;;9.50;99.00;;;;;;4797564;29;20457;-70
2022/02/22 12:03:06;;;;;;;12.63;3.40;;;9.40;99.10;;;;;;4797184;29;20431;-70
2022/02/22 12:05:53;;;;;;;13.63;3.60;;;9.40;99.90;;;;;;4799383;29;20817;-70
2022/02/22 12:08:41;;;;;;;24.07;4.07;;;9.30;99.90;;;;;;4801011;29;20453;-70
2022/02/22 12:11:27;;;;;;;9.43;3.40;;;9.30;99.90;;;;;;4799995;29;20784;-70
2022/02/22 12:14:15;;;;;;;15.90;3.57;;;9.20;99.90;;;;;;4800606;29;21010;-70
2022/02/22 12:17:06;;;;;;;19.83;4.97;;;9.20;99.90;;;;;;4794586;29;20502;-70
2022/02/22 12:19:53;;;;;;;18.50;6.47;;;9.10;99.90;;;;;;4800717;29;20433;-70
2022/02/22 12:22:39;;;;;;;17.37;5.00;;;9.10;99.90;;;;;;4798671;29;20556;-69
2022/02/22 12:25:26;;;;;;;12.07;4.57;;;9.00;99.90;;;;;;4798028;29;20441;-69
2022/02/22 12:28:11;;;;;;;25.17;5.73;;;9.10;99.90;;;;;;4799545;29;20477;-70
2022/02/22 12:30:59;;;;;;;15.27;5.60;;;9.10;99.90;;;;;;4804524;29;20533;-69
2022/02/22 12:33:47;;;;;;;16.87;5.07;;;9.00;99.90;;;;;;4801948;29;20949;-70
2022/02/22 12:36:34;;;;;;;19.30;5.70;;;9.00;99.90;;;;;;4802848;29;20570;-70
2022/02/22 12:39:24;;;;;;;29.70;5.20;;;9.10;99.90;;;;;;4802803;29;20426;-70
2022/02/22 12:42:10;;;;;;;18.77;5.37;;;9.10;99.90;;;;;;4801312;29;20423;-70
2022/02/22 12:44:55;;;;;;;12.73;4.80;;;9.10;99.90;;;;;;4796591;29;20486;-70
2022/02/22 12:47:41;;;;;;;21.63;6.17;;;9.20;99.90;;;;;;4805236;29;20456;-70
2022/02/22 12:50:28;;;;;;;19.30;6.00;;;9.10;99.90;;;;;;4804197;29;20439;-70
2022/02/22 12:53:14;;;;;;;19.27;5.53;;;9.20;99.90;;;;;;4801132;29;20848;-70
2022/02/22 12:56:00;;;;;;;12.97;4.60;;;9.30;99.90;;;;;;4800282;29;20441;-70
2022/02/22 12:58:45;;;;;;;21.17;4.97;;;9.30;99.90;;;;;;4806814;29;20812;-70
2022/02/22 13:01:35;;;;;;;14.87;5.17;;;9.30;99.90;;;;;;4805894;29;20437;-70
2022/02/22 13:04:26;;;;;;;18.63;5.17;;;9.40;99.90;;;;;;4799992;29;20471;-70
2022/02/22 13:07:15;;;;;;;17.77;5.40;;;9.30;99.90;;;;;;4800701;29;21015;-70
2022/02/22 13:10:11;;;;;;;17.10;5.10;;;9.30;99.90;;;;;;4801955;29;20521;-70
2022/02/22 13:13:00;;;;;;;22.03;5.90;;;9.20;99.90;;;;;;4799992;29;20473;-70
2022/02/22 13:15:46;;;;;;;19.53;5.40;;;9.10;99.90;;;;;;4800069;29;20961;-70
2022/02/22 13:18:31;;;;;;;19.73;5.13;;;9.20;99.90;;;;;;4807025;29;20476;-70
2022/02/22 13:21:17;;;;;;;17.00;4.90;;;9.10;99.90;;;;;;4800532;29;20437;-70
2022/02/22 13:24:11;;;;;;;23.87;5.30;;;9.10;99.90;;;;;;4798983;29;20505;-69
2022/02/22 13:26:59;;;;;;;25.13;5.30;;;9.10;99.90;;;;;;4803021;29;20542;-70
2022/02/22 13:29:45;;;;;;;13.13;4.60;;;9.10;99.90;;;;;;4798632;29;20441;-70
2022/02/22 13:32:31;;;;;;;21.37;5.00;;;9.10;99.90;;;;;;4801852;29;20430;-70
2022/02/22 13:35:21;;;;;;;14.37;3.93;;;9.10;99.90;;;;;;4799043;29;20466;-70
2022/02/22 13:38:16;;;;;;;14.03;5.00;;;9.10;99.90;;;;;;4804068;29;20448;-70
2022/02/22 13:41:12;;;;;;;22.77;5.50;;;9.10;99.90;;;;;;4800043;29;20453;-70
2022/02/22 13:43:58;;;;;;;24.40;5.80;;;9.10;99.90;;;;;;4797409;29;20457;-70
2022/02/22 13:46:50;;;;;;;20.07;4.70;;;9.10;99.90;;;;;;4806385;29;20824;-70
2022/02/22 13:49:44;;;;;;;29.17;5.33;;;9.10;99.90;;;;;;4801716;29;20478;-70
2022/02/22 13:52:30;;;;;;;16.60;5.47;;;9.10;99.90;;;;;;4800400;29;20490;-70
2022/02/22 13:55:15;;;;;;;20.20;5.80;;;9.10;99.90;;;;;;4799076;29;20470;-70
2022/02/22 13:58:04;;;;;;;18.10;4.67;;;9.10;99.90;;;;;;4803934;29;20502;-70
2022/02/22 14:00:51;;;;;;;14.93;4.67;;;9.10;99.90;;;;;;4798521;29;20458;-70
2022/02/22 14:03:38;;;;;;;18.63;4.00;;;9.10;99.90;;;;;;4798651;29;20488;-69
2022/02/22 14:06:29;;;;;;;15.97;4.53;;;9.00;99.90;;;;;;4797987;29;20614;-70
2022/02/22 14:09:15;;;;;;;21.40;6.20;;;9.00;99.90;;;;;;4802621;29;20594;-70
2022/02/22 14:12:01;;;;;;;34.33;6.87;;;8.90;99.90;;;;;;4794956;29;20581;-71
2022/02/22 14:14:48;;;;;;;21.43;4.80;;;8.90;99.90;;;;;;4798904;29;20829;-71
2022/02/22 14:17:34;;;;;;;20.67;6.03;;;8.80;99.90;;;;;;4802248;29;20981;-72
2022/02/22 14:20:20;;;;;;;32.80;6.03;;;8.70;99.90;;;;;;4804087;29;20930;-72
2022/02/22 14:23:07;;;;;;;22.10;4.90;;;8.80;99.90;;;;;;4809398;29;20416;-72
2022/02/22 14:25:53;;;;;;;22.30;4.37;;;8.80;99.90;;;;;;4799751;29;20453;-71
2022/02/22 14:28:39;;;;;;;20.53;4.60;;;8.80;99.90;;;;;;4793714;29;20501;-71
2022/02/22 14:31:26;;;;;;;21.20;4.70;;;8.80;99.90;;;;;;4800426;29;20494;-72